createdAt,value
2019-03-22T00:01:23.240Z,16.43
2019-03-22T00:03:55.615Z,16.17
2019-03-22T00:06:29.314Z,16.97
2019-03-22T00:09:03.948Z,15.90
2019-03-22T00:11:36.077Z,13.80
2019-03-22T00:14:10.158Z,12.53
2019-03-22T00:16:42.589Z,12.50
2019-03-22T00:19:18.303Z,12.50
2019-03-22T00:21:49.370Z,11.97
2019-03-22T00:24:24.650Z,12.67
2019-03-22T00:26:56.396Z,13.17
2019-03-22T00:29:31.286Z,13.03
2019-03-22T00:32:04.582Z,13.53
2019-03-22T00:34:37.126Z,13.53
2019-03-22T00:37:09.006Z,13.10
2019-03-22T00:39:40.148Z,13.27
2019-03-22T00:42:12.663Z,13.70
2019-03-22T00:44:46.673Z,12.87
2019-03-22T00:47:18.198Z,12.93
2019-03-22T00:49:49.751Z,12.10
2019-03-22T00:52:21.163Z,11.67
2019-03-22T00:54:55.175Z,11.80
2019-03-22T00:57:28.634Z,11.00
2019-03-22T01:00:02.842Z,11.13
2019-03-22T01:02:35.873Z,11.20
2019-03-22T01:05:10.055Z,10.67
2019-03-22T01:07:41.651Z,10.77
2019-03-22T01:10:13.778Z,10.90
2019-03-22T01:12:45.230Z,10.40
2019-03-22T01:15:17.719Z,11.47
2019-03-22T01:17:48.820Z,10.90
2019-03-22T01:20:22.553Z,10.83
2019-03-22T01:22:55.353Z,11.33
2019-03-22T01:25:27.506Z,10.63
2019-03-22T01:28:01.032Z,9.90
2019-03-22T01:30:34.807Z,10.10
2019-03-22T01:33:06.620Z,9.63
2019-03-22T01:35:39.744Z,8.97
2019-03-22T01:38:14.181Z,9.60
2019-03-22T01:40:48.819Z,9.73
2019-03-22T01:43:22.365Z,8.93
2019-03-22T01:45:55.706Z,9.13
2019-03-22T01:48:27.234Z,9.23
2019-03-22T01:51:00.446Z,9.57
2019-03-22T01:53:32.637Z,9.17
2019-03-22T01:56:03.777Z,8.87
2019-03-22T01:58:34.495Z,9.17
2019-03-22T02:01:06.685Z,9.17
2019-03-22T02:03:39.574Z,9.70
2019-03-22T02:06:12.110Z,9.40
2019-03-22T02:08:45.202Z,9.23
2019-03-22T02:11:18.310Z,9.73
2019-03-22T02:13:51.301Z,9.50
2019-03-22T02:16:23.835Z,9.37
2019-03-22T02:18:55.300Z,9.30
2019-03-22T02:21:28.299Z,9.63
2019-03-22T02:24:03.975Z,9.57
2019-03-22T02:26:38.256Z,9.33
2019-03-22T02:29:10.523Z,9.10
2019-03-22T02:31:45.096Z,9.60
2019-03-22T02:34:19.489Z,9.43
2019-03-22T02:36:51.498Z,9.13
2019-03-22T02:39:24.818Z,9.33
2019-03-22T02:41:57.078Z,9.73
2019-03-22T02:44:30.613Z,9.40
2019-03-22T02:47:03.128Z,9.50
2019-03-22T02:49:33.856Z,8.90
2019-03-22T02:52:06.112Z,8.87
2019-03-22T02:54:37.853Z,9.70
2019-03-22T02:57:10.396Z,8.77
2019-03-22T02:59:43.174Z,9.27
2019-03-22T03:02:14.633Z,8.90
2019-03-22T03:04:49.019Z,9.97
2019-03-22T03:07:20.634Z,9.57
2019-03-22T03:09:53.016Z,9.30
2019-03-22T03:12:23.798Z,9.60
2019-03-22T03:14:55.054Z,9.20
2019-03-22T03:17:27.069Z,9.17
2019-03-22T03:19:59.028Z,10.37
2019-03-22T03:22:31.209Z,9.97
2019-03-22T03:25:07.364Z,9.60
2019-03-22T03:27:40.723Z,9.20
2019-03-22T03:30:18.533Z,10.17
2019-03-22T03:32:51.042Z,10.27
2019-03-22T03:35:22.617Z,10.00
2019-03-22T03:37:54.130Z,10.63
2019-03-22T03:40:26.494Z,9.70
2019-03-22T03:42:59.858Z,9.73
2019-03-22T03:45:34.947Z,10.53
2019-03-22T03:48:08.394Z,10.30
2019-03-22T03:50:39.969Z,10.13
2019-03-22T03:53:12.180Z,9.60
2019-03-22T03:55:43.778Z,9.53
2019-03-22T03:58:15.384Z,9.73
2019-03-22T04:00:46.426Z,9.37
2019-03-22T04:03:18.058Z,9.33
2019-03-22T04:05:50.087Z,9.50
2019-03-22T04:08:21.309Z,9.60
2019-03-22T04:10:52.937Z,9.50
2019-03-22T04:13:25.186Z,9.93
2019-03-22T04:15:56.962Z,9.80
2019-03-22T04:18:28.997Z,9.07
2019-03-22T04:21:03.118Z,9.40
2019-03-22T04:23:36.922Z,9.20
2019-03-22T04:26:07.648Z,9.23
2019-03-22T04:28:40.331Z,9.50
2019-03-22T04:31:13.178Z,8.50
2019-03-22T04:33:45.162Z,8.83
2019-03-22T04:36:15.916Z,8.30
2019-03-22T04:38:47.951Z,8.80
2019-03-22T04:41:19.971Z,9.03
2019-03-22T04:43:51.096Z,9.40
2019-03-22T04:46:22.715Z,9.20
2019-03-22T04:48:55.663Z,8.53
2019-03-22T04:51:27.282Z,9.07
2019-03-22T04:54:03.546Z,9.07
2019-03-22T04:56:39.252Z,8.77
2019-03-22T04:59:19.350Z,9.10
2019-03-22T05:01:50.874Z,9.13
2019-03-22T05:04:27.357Z,9.07
2019-03-22T05:06:59.869Z,8.93
2019-03-22T05:09:33.057Z,9.33
2019-03-22T05:12:09.856Z,9.20
2019-03-22T05:14:44.678Z,9.37
2019-03-22T05:17:17.264Z,9.27
2019-03-22T05:19:54.374Z,9.27
2019-03-22T05:22:28.554Z,10.00
2019-03-22T05:25:05.003Z,9.03
2019-03-22T05:27:40.094Z,9.77
2019-03-22T05:30:31.724Z,9.17
2019-03-22T05:33:05.253Z,9.70
2019-03-22T05:35:38.661Z,9.60
2019-03-22T05:38:11.490Z,9.90
2019-03-22T05:40:46.008Z,9.27
2019-03-22T05:43:17.790Z,10.17
2019-03-22T05:45:48.526Z,9.87
2019-03-22T05:48:20.486Z,10.17
2019-03-22T05:50:52.243Z,9.90
2019-03-22T05:53:24.275Z,9.00
2019-03-22T05:55:55.797Z,9.10
2019-03-22T05:58:29.619Z,9.50
2019-03-22T06:01:02.698Z,10.43
2019-03-22T06:03:37.769Z,9.57
2019-03-22T06:06:10.768Z,9.67
2019-03-22T06:08:44.169Z,9.40
2019-03-22T06:11:15.762Z,9.70
2019-03-22T06:13:48.275Z,9.57
2019-03-22T06:16:19.319Z,9.73
2019-03-22T06:18:51.643Z,9.60
2019-03-22T06:21:25.039Z,9.93
2019-03-22T06:23:59.215Z,9.87
2019-03-22T06:26:34.521Z,10.03
2019-03-22T06:29:06.293Z,9.80
2019-03-22T06:31:40.807Z,10.47
2019-03-22T06:34:49.218Z,10.10
2019-03-22T06:37:22.860Z,10.40
2019-03-22T06:39:53.569Z,10.10
2019-03-22T06:42:25.182Z,9.87
2019-03-22T06:44:57.062Z,10.43
2019-03-22T06:47:27.966Z,10.47
2019-03-22T06:49:59.212Z,10.10
2019-03-22T06:52:33.698Z,9.77
2019-03-22T06:55:08.162Z,9.97
2019-03-22T06:57:41.811Z,10.00
2019-03-22T07:00:15.331Z,10.17
2019-03-22T07:02:46.429Z,9.77
2019-03-22T07:05:18.343Z,9.93
2019-03-22T07:07:51.276Z,10.40
2019-03-22T07:10:23.384Z,10.17
2019-03-22T07:12:55.044Z,10.63
2019-03-22T07:15:28.055Z,10.10
2019-03-22T07:17:59.557Z,10.47
2019-03-22T07:20:30.709Z,10.43
2019-03-22T07:23:02.942Z,10.43
2019-03-22T07:25:34.099Z,10.53
2019-03-22T07:28:05.161Z,10.40
2019-03-22T07:30:36.759Z,10.27
2019-03-22T07:33:10.815Z,10.90
2019-03-22T07:35:44.011Z,10.43
2019-03-22T07:38:16.144Z,10.20
2019-03-22T07:40:48.331Z,10.70
2019-03-22T07:43:19.554Z,11.23
2019-03-22T07:45:51.575Z,10.93
2019-03-22T07:48:23.487Z,11.13
2019-03-22T07:50:57.252Z,11.27
2019-03-22T07:53:29.810Z,11.13
2019-03-22T07:56:04.313Z,10.90
2019-03-22T07:58:37.033Z,10.37
2019-03-22T08:01:08.025Z,9.80
2019-03-22T08:04:03.366Z,10.27
2019-03-22T08:06:36.140Z,10.60
2019-03-22T08:09:11.431Z,10.57
2019-03-22T08:11:42.543Z,10.13
2019-03-22T08:14:16.296Z,10.00
2019-03-22T08:16:47.592Z,10.33
2019-03-22T08:19:21.265Z,10.17
2019-03-22T08:21:52.183Z,10.50
2019-03-22T08:24:24.696Z,9.80
2019-03-22T08:26:57.611Z,11.03
2019-03-22T08:29:28.876Z,9.53
2019-03-22T08:32:06.451Z,9.77
2019-03-22T08:34:41.399Z,9.60
2019-03-22T08:37:12.561Z,10.10
2019-03-22T08:39:44.701Z,9.87
2019-03-22T08:42:15.513Z,10.30
2019-03-22T08:44:46.797Z,9.50
2019-03-22T08:47:18.190Z,9.60
2019-03-22T08:49:50.731Z,13.10
2019-03-22T08:52:24.871Z,10.60
2019-03-22T08:54:58.862Z,12.57
2019-03-22T08:57:31.046Z,39.23
2019-03-22T09:00:02.287Z,64.30
2019-03-22T09:02:33.519Z,15.83
2019-03-22T09:05:04.387Z,20.10
2019-03-22T09:07:38.097Z,10.03
2019-03-22T09:10:11.148Z,10.23
2019-03-22T09:12:43.970Z,9.77
2019-03-22T09:15:15.616Z,9.57
2019-03-22T09:17:47.205Z,10.10
2019-03-22T09:20:20.030Z,10.37
2019-03-22T09:22:50.701Z,9.87
2019-03-22T09:34:11.786Z,9.73
2019-03-22T09:36:45.476Z,9.93
2019-03-22T09:39:17.762Z,10.40
2019-03-22T09:41:50.591Z,10.43
2019-03-22T09:44:21.317Z,10.60
2019-03-22T09:46:52.096Z,10.40
2019-03-22T09:49:22.971Z,9.70
2019-03-22T09:51:55.329Z,10.30
2019-03-22T09:54:26.667Z,10.03
2019-03-22T10:07:35.341Z,10.33
2019-03-22T10:10:07.997Z,10.03
2019-03-22T10:12:40.534Z,24.47
2019-03-22T10:15:12.712Z,19.67
2019-03-22T10:17:45.610Z,16.70
2019-03-22T10:20:17.722Z,10.93
2019-03-22T10:22:48.827Z,9.70
2019-03-22T10:25:22.498Z,10.10
2019-03-22T10:27:55.268Z,9.90
2019-03-22T10:30:26.510Z,9.80
2019-03-22T10:32:57.755Z,8.73
2019-03-22T10:35:29.318Z,9.27
2019-03-22T10:38:06.265Z,9.93
2019-03-22T10:40:39.890Z,9.17
2019-03-22T10:43:15.151Z,8.93
2019-03-22T10:45:47.338Z,8.87
2019-03-22T10:48:19.676Z,8.80
2019-03-22T10:50:51.290Z,8.30
2019-03-22T10:53:22.849Z,8.13
2019-03-22T10:55:54.536Z,8.50
2019-03-22T10:58:25.810Z,8.03
2019-03-22T11:00:57.837Z,8.67
2019-03-22T11:03:30.153Z,8.07
2019-03-22T11:06:02.481Z,8.13
2019-03-22T11:08:34.361Z,8.60
2019-03-22T11:11:08.874Z,8.83
2019-03-22T11:13:41.127Z,7.40
2019-03-22T11:16:12.230Z,7.27
2019-03-22T11:18:46.519Z,6.93
2019-03-22T11:21:20.844Z,7.53
2019-03-22T11:23:52.973Z,7.27
2019-03-22T11:26:24.130Z,7.60
2019-03-22T11:28:55.751Z,7.17
2019-03-22T11:31:28.768Z,6.97
2019-03-22T11:34:02.255Z,7.40
2019-03-22T11:36:34.244Z,6.90
2019-03-22T11:39:15.786Z,6.60
2019-03-22T11:41:46.879Z,6.27
2019-03-22T11:44:21.498Z,6.57
2019-03-22T11:46:54.780Z,6.27
2019-03-22T11:49:28.104Z,5.97
2019-03-22T11:52:02.873Z,6.30
2019-03-22T11:54:35.182Z,6.37
2019-03-22T11:57:07.042Z,5.87
2019-03-22T11:59:38.666Z,6.03
2019-03-22T12:02:11.255Z,5.70
2019-03-22T12:04:44.248Z,5.07
2019-03-22T12:07:17.766Z,5.20
2019-03-22T12:09:51.709Z,4.43
2019-03-22T12:12:25.744Z,4.13
2019-03-22T12:14:58.150Z,4.60
2019-03-22T12:17:29.902Z,4.57
2019-03-22T12:20:06.479Z,5.07
2019-03-22T12:22:39.921Z,5.03
2019-03-22T12:25:12.703Z,5.00
2019-03-22T12:27:44.302Z,11.77
2019-03-22T12:30:16.868Z,5.20
2019-03-22T12:32:48.845Z,5.07
2019-03-22T12:35:20.777Z,4.53
2019-03-22T12:37:51.785Z,4.00
2019-03-22T12:40:23.683Z,4.83
2019-03-22T12:42:56.559Z,4.55
2019-03-22T12:45:27.730Z,4.12
2019-03-22T12:47:58.848Z,4.80
2019-03-22T12:50:31.021Z,4.30
2019-03-22T12:53:02.170Z,4.45
2019-03-22T12:55:33.246Z,4.30
2019-03-22T12:58:04.857Z,4.35
2019-03-22T13:00:36.457Z,3.90
2019-03-22T13:03:08.057Z,4.10
2019-03-22T13:05:40.595Z,3.87
2019-03-22T13:08:11.302Z,4.10
2019-03-22T13:10:45.066Z,4.47
2019-03-22T13:13:17.935Z,4.50
2019-03-22T13:15:50.137Z,4.60
2019-03-22T13:18:20.944Z,3.92
2019-03-22T13:20:53.306Z,3.47
2019-03-22T13:23:31.272Z,3.98
2019-03-22T13:26:05.234Z,4.35
2019-03-22T13:28:43.787Z,4.00
2019-03-22T13:31:17.886Z,4.33
2019-03-22T13:33:51.792Z,3.98
2019-03-22T13:36:26.660Z,3.87
2019-03-22T13:38:58.667Z,3.60
2019-03-22T13:41:42.433Z,3.77
2019-03-22T13:44:13.839Z,3.80
2019-03-22T13:46:44.620Z,4.22
2019-03-22T13:49:15.367Z,4.20
2019-03-22T13:51:47.455Z,4.20
2019-03-22T13:54:19.899Z,4.20
2019-03-22T13:56:51.762Z,4.42
2019-03-22T13:59:23.769Z,4.20
2019-03-22T14:01:54.932Z,3.72
2019-03-22T14:04:27.333Z,4.08
2019-03-22T14:07:00.573Z,3.60
2019-03-22T14:09:32.141Z,3.72
2019-03-22T14:12:03.628Z,3.90
2019-03-22T14:14:36.457Z,4.37
2019-03-22T14:17:07.618Z,3.77
2019-03-22T14:19:38.336Z,4.25
2019-03-22T14:22:11.595Z,3.80
2019-03-22T14:24:43.283Z,3.58
2019-03-22T14:27:16.548Z,4.12
2019-03-22T14:29:48.108Z,4.22
2019-03-22T14:32:20.019Z,4.00
2019-03-22T14:34:52.084Z,3.90
2019-03-22T14:37:25.276Z,3.58
2019-03-22T14:39:55.986Z,3.55
2019-03-22T14:42:27.793Z,3.40
2019-03-22T14:44:59.307Z,3.60
2019-03-22T14:47:30.370Z,3.75
2019-03-22T14:50:02.210Z,3.80
2019-03-22T14:52:34.885Z,3.40
2019-03-22T14:55:09.629Z,3.70
2019-03-22T14:57:48.723Z,3.40
2019-03-22T15:00:15.048Z,4.00
2019-03-22T15:02:48.939Z,4.03
2019-03-22T15:05:20.928Z,3.80
2019-03-22T15:07:56.725Z,4.22
2019-03-22T15:10:31.468Z,4.10
2019-03-22T15:13:07.451Z,3.87
2019-03-22T15:16:06.390Z,4.50
2019-03-22T15:19:05.901Z,4.00
2019-03-22T15:21:55.413Z,4.10
2019-03-22T15:24:37.783Z,3.95
2019-03-22T15:27:38.211Z,4.30
2019-03-22T15:30:30.757Z,4.47
2019-03-22T15:33:34.556Z,5.95
2019-03-22T15:36:25.140Z,4.40
2019-03-22T15:39:21.699Z,4.22
2019-03-22T15:41:57.714Z,4.60
2019-03-22T15:44:31.115Z,4.70
2019-03-22T15:47:06.386Z,3.92
2019-03-22T15:49:40.790Z,4.43
2019-03-22T15:52:11.909Z,4.10
2019-03-22T15:54:42.944Z,4.87
2019-03-22T15:57:14.910Z,4.70
2019-03-22T15:59:46.452Z,4.40
2019-03-22T16:02:17.597Z,4.40
2019-03-22T16:04:49.715Z,4.80
2019-03-22T16:07:21.727Z,4.60
2019-03-22T16:09:54.894Z,4.80
2019-03-22T16:12:26.116Z,4.30
2019-03-22T16:14:58.067Z,4.73
2019-03-22T16:17:29.229Z,4.53
2019-03-22T16:20:00.419Z,4.97
2019-03-22T16:22:31.573Z,5.17
2019-03-22T16:25:05.897Z,4.33
2019-03-22T16:27:37.100Z,4.90
2019-03-22T16:30:09.616Z,4.33
2019-03-22T16:32:41.489Z,4.43
2019-03-22T16:35:13.552Z,4.20
2019-03-22T16:37:44.805Z,4.43
2019-03-22T16:40:24.146Z,4.10
2019-03-22T16:42:51.578Z,4.00
2019-03-22T16:45:44.191Z,4.00
2019-03-22T16:48:15.416Z,3.77
2019-03-22T16:50:46.179Z,3.93
2019-03-22T16:53:18.213Z,4.13
2019-03-22T16:55:54.131Z,3.80
2019-03-22T16:58:25.925Z,3.50
2019-03-22T17:00:59.019Z,3.40
2019-03-22T17:03:34.087Z,3.23
2019-03-22T17:06:08.032Z,3.83
2019-03-22T17:08:39.627Z,3.67
2019-03-22T17:11:11.576Z,4.10
2019-03-22T17:13:43.550Z,3.13
2019-03-22T17:16:15.591Z,3.50
2019-03-22T17:18:48.018Z,3.10
2019-03-22T17:21:18.834Z,3.20
2019-03-22T17:23:50.387Z,3.00
2019-03-22T17:26:21.165Z,3.20
2019-03-22T17:28:57.942Z,3.33
2019-03-22T17:31:33.987Z,3.80
2019-03-22T17:34:14.007Z,3.40
2019-03-22T17:36:39.878Z,3.20
2019-03-22T17:39:11.084Z,3.50
2019-03-22T17:41:42.193Z,3.40
2019-03-22T17:44:14.830Z,3.60
2019-03-22T17:46:48.733Z,3.50
2019-03-22T17:49:19.813Z,4.00
2019-03-22T17:51:51.756Z,4.37
2019-03-22T17:54:24.259Z,4.23
2019-03-22T17:56:56.311Z,4.40
2019-03-22T17:59:28.167Z,4.63
2019-03-22T18:02:00.793Z,4.43
2019-03-22T18:04:33.757Z,4.53
2019-03-22T18:07:07.183Z,4.60
2019-03-22T18:09:37.921Z,4.50
2019-03-22T18:12:09.107Z,4.33
2019-03-22T18:14:43.354Z,4.73
2019-03-22T18:17:15.112Z,4.93
2019-03-22T18:19:46.362Z,4.50
2019-03-22T18:22:17.857Z,4.90
2019-03-22T18:24:49.097Z,4.53
2019-03-22T18:27:19.870Z,4.43
2019-03-22T18:29:50.567Z,4.70
2019-03-22T18:32:22.161Z,4.70
2019-03-22T18:34:53.572Z,4.93
2019-03-22T18:37:24.629Z,4.40
2019-03-22T18:39:55.649Z,4.33
2019-03-22T18:42:28.043Z,4.20
2019-03-22T18:45:00.420Z,4.97
2019-03-22T18:47:33.238Z,4.60
2019-03-22T18:50:06.027Z,5.30
2019-03-22T18:52:38.553Z,4.70
2019-03-22T18:55:10.321Z,5.03
2019-03-22T18:57:42.831Z,5.37
2019-03-22T19:00:18.608Z,4.63
2019-03-22T19:02:52.076Z,5.13
2019-03-22T19:05:23.706Z,5.63
2019-03-22T19:07:54.591Z,5.43
2019-03-22T19:10:25.364Z,5.50
2019-03-22T19:13:01.321Z,5.37
2019-03-22T19:15:34.013Z,5.20
2019-03-22T19:18:06.624Z,5.40
2019-03-22T19:20:41.394Z,5.40
2019-03-22T19:23:14.953Z,5.80
2019-03-22T19:25:47.467Z,5.90
2019-03-22T19:29:47.248Z,7.13
2019-03-22T19:31:19.289Z,6.27
2019-03-22T19:33:51.837Z,6.60
2019-03-22T19:36:32.616Z,6.40
2019-03-22T19:39:10.262Z,6.87
2019-03-22T19:41:47.127Z,6.80
2019-03-22T19:44:21.999Z,6.87
2019-03-22T19:46:53.660Z,7.37
2019-03-22T19:49:27.651Z,6.60
2019-03-22T19:52:01.701Z,6.97
2019-03-22T19:54:37.304Z,6.20
2019-03-22T19:57:12.089Z,5.53
2019-03-22T19:59:43.431Z,5.63
2019-03-22T20:02:15.337Z,6.10
2019-03-22T20:04:48.063Z,6.07
2019-03-22T20:07:27.076Z,5.60
2019-03-22T20:09:57.488Z,5.20
2019-03-22T20:12:29.327Z,5.93
2019-03-22T20:15:09.344Z,6.50
2019-03-22T20:17:40.741Z,5.87
2019-03-22T20:20:13.519Z,5.20
2019-03-22T20:22:44.232Z,5.67
2019-03-22T20:25:16.327Z,5.67
2019-03-22T20:27:48.131Z,5.40
2019-03-22T20:30:23.884Z,5.90
2019-03-22T20:32:56.318Z,5.70
2019-03-22T20:35:29.221Z,6.13
2019-03-22T20:38:01.163Z,5.97
2019-03-22T20:40:32.265Z,5.77
2019-03-22T20:43:04.368Z,5.90
2019-03-22T20:45:35.127Z,5.93
2019-03-22T20:48:08.775Z,6.00
2019-03-22T20:50:44.100Z,6.23
2019-03-22T20:53:16.289Z,5.90
2019-03-22T20:55:50.066Z,6.73
2019-03-22T20:58:22.745Z,6.50
2019-03-22T21:00:54.209Z,5.73
2019-03-22T21:03:25.277Z,7.07
2019-03-22T21:05:58.322Z,7.00
2019-03-22T21:08:31.381Z,6.57
2019-03-22T21:11:03.274Z,6.53
2019-03-22T21:13:36.334Z,6.70
2019-03-22T21:16:08.223Z,6.50
2019-03-22T21:18:43.056Z,6.70
2019-03-22T21:21:18.784Z,6.83
2019-03-22T21:23:52.255Z,6.43
2019-03-22T21:26:24.183Z,6.30
2019-03-22T21:28:57.921Z,7.10
2019-03-22T21:31:28.693Z,7.00
2019-03-22T21:33:59.989Z,6.80
2019-03-22T21:36:31.903Z,7.53
2019-03-22T21:39:05.720Z,7.30
2019-03-22T21:41:36.883Z,7.20
2019-03-22T21:44:07.885Z,7.37
2019-03-22T21:46:42.523Z,7.80
2019-03-22T21:49:25.246Z,7.57
2019-03-22T21:52:02.122Z,7.60
2019-03-22T21:54:33.234Z,7.50
2019-03-22T21:57:04.333Z,7.73
2019-03-22T21:59:35.568Z,7.90
2019-03-22T22:02:06.916Z,8.10
2019-03-22T22:04:38.057Z,7.33
2019-03-22T22:07:12.180Z,7.93
2019-03-22T22:09:43.823Z,7.83
2019-03-22T22:12:29.868Z,7.50
2019-03-22T22:15:15.022Z,7.90
2019-03-22T22:17:48.364Z,7.90
2019-03-22T22:20:28.436Z,7.30
2019-03-22T22:22:56.103Z,7.77
2019-03-22T22:25:27.665Z,7.47
2019-03-22T22:27:59.878Z,8.43
2019-03-22T22:30:31.931Z,7.30
2019-03-22T22:33:03.056Z,8.20
2019-03-22T22:35:35.325Z,9.20
2019-03-22T22:38:09.841Z,8.50
2019-03-22T22:40:41.735Z,8.60
2019-03-22T22:43:13.226Z,9.00
2019-03-22T22:45:44.218Z,8.43
2019-03-22T22:48:18.175Z,9.20
2019-03-22T22:50:49.765Z,8.23
2019-03-22T22:53:23.765Z,8.90
2019-03-22T22:55:54.492Z,9.27
2019-03-22T22:58:26.555Z,8.70
2019-03-22T23:00:58.794Z,8.97
2019-03-22T23:03:31.581Z,8.60
2019-03-22T23:06:09.668Z,9.10
2019-03-22T23:08:41.577Z,8.90
2019-03-22T23:11:13.169Z,8.50
2019-03-22T23:13:44.065Z,8.70
2019-03-22T23:16:15.527Z,8.53
2019-03-22T23:18:47.502Z,8.83
2019-03-22T23:21:19.368Z,8.03
2019-03-22T23:23:52.367Z,8.10
2019-03-22T23:26:25.594Z,8.30
2019-03-22T23:28:57.660Z,9.07
2019-03-22T23:31:29.367Z,8.53
2019-03-22T23:34:01.636Z,8.93
2019-03-22T23:36:34.303Z,8.00
2019-03-22T23:39:13.174Z,8.37
2019-03-22T23:41:48.637Z,8.43
2019-03-22T23:44:21.405Z,8.80
2019-03-22T23:46:53.320Z,8.33
2019-03-22T23:49:24.550Z,8.83
2019-03-22T23:51:55.683Z,9.27
2019-03-22T23:54:27.536Z,9.00
2019-03-22T23:56:58.531Z,9.07
2019-03-22T23:59:29.443Z,9.27
